Ada, Minnesota
Current Conditions -  °F | °C
As of 12:15 AM on Monday 22 Dec 2014 (Local Time) from K3N8 Reporting Station
Overcast Overcast  
Wind Chill: 26°   Ceiling: 1100
Heat Index: 34°   Visibility: 10mi
Dew Point: 33°   Wind: 10mph
Humidity: 94%   Direction: 160°SSE
Pressure: 29.57"   Gusts: NA
Location:  47.3°N, 96.52°W
Report Text: K3N8 220615Z AUTO 16009KT 10SM OVC011 01/00 A2957 RMK AO2 T00130004
Loading
Personal Weather Stations






























Interactive Weather Map New forecast layout! Learn more

10-Day Weather Forecast

Advertisements
Track Severe Weather on mobile